Goodenow, Illinois
Current Conditions -  °F | °C
As of 1:15 PM on Saturday 20 Dec 2014 (Local Time) from KIGQ Reporting Station
Overcast Overcast  
Wind Chill: 26°   Ceiling: 7000
Heat Index: 33°   Visibility: 10mi
Dew Point: 26°   Wind: 8mph
Humidity: 75%   Direction: 330°NNW
Pressure: 30.26"   Gusts: NA
Location:  41.3435°N, 87.6008°W
Report Text: KIGQ 201915Z AUTO 33007KT 10SM SCT019 SCT046 OVC070 01/M03 A3026 RMK AO2 T00051035
Loading
Personal Weather Stations






























Interactive Weather Map New forecast layout! Learn more

10-Day Weather Forecast

Advertisements
Track Severe Weather on mobile